sensor_id;sensor_type;location;lat;lon;timestamp;temperature;humidity
20862;DHT22;10591;52.532;13.348;2022-10-16T00:02:14;15.38;84.36
20862;DHT22;10591;52.532;13.348;2022-10-16T00:04:45;15.42;84.29
20862;DHT22;10591;52.532;13.348;2022-10-16T00:07:15;15.40;84.27
20862;DHT22;10591;52.532;13.348;2022-10-16T00:09:46;15.42;84.41
20862;DHT22;10591;52.532;13.348;2022-10-16T00:12:16;15.43;84.30
20862;DHT22;10591;52.532;13.348;2022-10-16T00:14:47;15.42;84.37
20862;DHT22;10591;52.532;13.348;2022-10-16T00:17:17;15.47;84.21
20862;DHT22;10591;52.532;13.348;2022-10-16T00:19:48;15.56;84.03
20862;DHT22;10591;52.532;13.348;2022-10-16T00:22:18;15.60;83.97
20862;DHT22;10591;52.532;13.348;2022-10-16T00:24:48;15.63;84.03
20862;DHT22;10591;52.532;13.348;2022-10-16T00:27:19;15.46;84.23
20862;DHT22;10591;52.532;13.348;2022-10-16T00:29:52;15.41;84.39
20862;DHT22;10591;52.532;13.348;2022-10-16T00:32:23;15.54;84.20
20862;DHT22;10591;52.532;13.348;2022-10-16T00:34:54;15.50;84.19
20862;DHT22;10591;52.532;13.348;2022-10-16T00:37:24;15.46;84.33
20862;DHT22;10591;52.532;13.348;2022-10-16T00:39:55;15.50;84.17
20862;DHT22;10591;52.532;13.348;2022-10-16T00:42:25;15.52;83.96
20862;DHT22;10591;52.532;13.348;2022-10-16T00:44:58;15.47;84.33
20862;DHT22;10591;52.532;13.348;2022-10-16T00:50:22;15.48;84.26
20862;DHT22;10591;52.532;13.348;2022-10-16T00:52:51;15.51;84.24
20862;DHT22;10591;52.532;13.348;2022-10-16T00:55:22;15.58;84.13
20862;DHT22;10591;52.532;13.348;2022-10-16T00:57:54;15.44;84.47
20862;DHT22;10591;52.532;13.348;2022-10-16T01:00:26;15.46;84.47
20862;DHT22;10591;52.532;13.348;2022-10-16T01:02:59;15.50;84.38
20862;DHT22;10591;52.532;13.348;2022-10-16T01:05:38;15.44;84.52
20862;DHT22;10591;52.532;13.348;2022-10-16T01:08:15;15.49;84.50
20862;DHT22;10591;52.532;13.348;2022-10-16T01:13:35;15.44;84.52
20862;DHT22;10591;52.532;13.348;2022-10-16T01:16:16;15.51;84.22
20862;DHT22;10591;52.532;13.348;2022-10-16T01:18:52;15.61;84.26
20862;DHT22;10591;52.532;13.348;2022-10-16T01:21:27;15.44;84.52
20862;DHT22;10591;52.532;13.348;2022-10-16T01:24:20;15.61;84.41
20862;DHT22;10591;52.532;13.348;2022-10-16T01:27:09;15.41;84.56
20862;DHT22;10591;52.532;13.348;2022-10-16T01:32:48;15.50;84.26
20862;DHT22;10591;52.532;13.348;2022-10-16T01:35:32;15.46;84.52
20862;DHT22;10591;52.532;13.348;2022-10-16T01:38:08;15.54;84.44
20862;DHT22;10591;52.532;13.348;2022-10-16T01:40:41;15.52;84.56
20862;DHT22;10591;52.532;13.348;2022-10-16T01:43:25;15.47;84.52
20862;DHT22;10591;52.532;13.348;2022-10-16T01:45:55;15.52;84.43
20862;DHT22;10591;52.532;13.348;2022-10-16T01:48:25;15.49;84.51
20862;DHT22;10591;52.532;13.348;2022-10-16T01:51:05;15.56;84.34
20862;DHT22;10591;52.532;13.348;2022-10-16T01:53:29;15.50;84.56
20862;DHT22;10591;52.532;13.348;2022-10-16T01:56:02;15.49;84.79
20862;DHT22;10591;52.532;13.348;2022-10-16T01:58:36;15.44;84.56
20862;DHT22;10591;52.532;13.348;2022-10-16T02:01:09;15.38;84.79
20862;DHT22;10591;52.532;13.348;2022-10-16T02:03:42;15.42;84.68
20862;DHT22;10591;52.532;13.348;2022-10-16T02:06:13;15.46;84.71
20862;DHT22;10591;52.532;13.348;2022-10-16T02:08:44;15.44;84.56
20862;DHT22;10591;52.532;13.348;2022-10-16T02:11:14;15.47;84.62
20862;DHT22;10591;52.532;13.348;2022-10-16T02:13:58;15.42;84.66
20862;DHT22;10591;52.532;13.348;2022-10-16T02:16:44;15.38;84.91
20862;DHT22;10591;52.532;13.348;2022-10-16T02:19:10;15.39;84.74
20862;DHT22;10591;52.532;13.348;2022-10-16T02:21:48;15.44;84.61
20862;DHT22;10591;52.532;13.348;2022-10-16T02:24:39;15.54;84.37
20862;DHT22;10591;52.532;13.348;2022-10-16T02:27:11;15.49;84.43
20862;DHT22;10591;52.532;13.348;2022-10-16T02:29:45;15.42;84.58
20862;DHT22;10591;52.532;13.348;2022-10-16T02:32:22;15.49;84.58
20862;DHT22;10591;52.532;13.348;2022-10-16T02:34:55;15.37;84.65
20862;DHT22;10591;52.532;13.348;2022-10-16T02:37:26;15.35;84.83
20862;DHT22;10591;52.532;13.348;2022-10-16T02:39:58;15.48;84.62
20862;DHT22;10591;52.532;13.348;2022-10-16T02:42:36;15.40;84.61
20862;DHT22;10591;52.532;13.348;2022-10-16T02:45:09;15.29;84.97
20862;DHT22;10591;52.532;13.348;2022-10-16T02:47:40;15.30;85.09
20862;DHT22;10591;52.532;13.348;2022-10-16T02:50:10;15.32;85.09
20862;DHT22;10591;52.532;13.348;2022-10-16T02:52:41;15.36;85.13
20862;DHT22;10591;52.532;13.348;2022-10-16T02:55:11;15.34;84.88
20862;DHT22;10591;52.532;13.348;2022-10-16T02:57:42;15.36;84.79
20862;DHT22;10591;52.532;13.348;2022-10-16T03:00:14;15.25;85.13
20862;DHT22;10591;52.532;13.348;2022-10-16T03:02:45;15.18;85.32
20862;DHT22;10591;52.532;13.348;2022-10-16T03:05:16;15.17;85.47
20862;DHT22;10591;52.532;13.348;2022-10-16T03:07:47;15.12;85.62
20862;DHT22;10591;52.532;13.348;2022-10-16T03:10:17;15.08;85.64
20862;DHT22;10591;52.532;13.348;2022-10-16T03:12:48;15.14;85.65
20862;DHT22;10591;52.532;13.348;2022-10-16T03:15:18;15.22;85.57
20862;DHT22;10591;52.532;13.348;2022-10-16T03:17:49;15.10;85.73
20862;DHT22;10591;52.532;13.348;2022-10-16T03:20:19;15.09;85.90
20862;DHT22;10591;52.532;13.348;2022-10-16T03:22:50;15.00;86.00
20862;DHT22;10591;52.532;13.348;2022-10-16T03:25:20;14.96;86.13
20862;DHT22;10591;52.532;13.348;2022-10-16T03:27:50;14.90;86.40
20862;DHT22;10591;52.532;13.348;2022-10-16T03:30:21;14.85;86.48
20862;DHT22;10591;52.532;13.348;2022-10-16T03:32:51;14.82;86.57
20862;DHT22;10591;52.532;13.348;2022-10-16T03:35:24;14.82;86.76
20862;DHT22;10591;52.532;13.348;2022-10-16T03:37:54;14.78;86.89
20862;DHT22;10591;52.532;13.348;2022-10-16T03:40:26;14.74;86.96
20862;DHT22;10591;52.532;13.348;2022-10-16T03:42:56;14.73;87.02
20862;DHT22;10591;52.532;13.348;2022-10-16T03:45:27;14.74;86.98
20862;DHT22;10591;52.532;13.348;2022-10-16T03:47:57;14.73;87.00
20862;DHT22;10591;52.532;13.348;2022-10-16T03:50:27;14.71;87.04
20862;DHT22;10591;52.532;13.348;2022-10-16T03:52:58;14.70;87.06
20862;DHT22;10591;52.532;13.348;2022-10-16T03:55:28;14.74;87.10
20862;DHT22;10591;52.532;13.348;2022-10-16T03:57:59;14.85;86.77
20862;DHT22;10591;52.532;13.348;2022-10-16T04:00:29;14.78;86.87
20862;DHT22;10591;52.532;13.348;2022-10-16T04:03:00;14.78;86.85
20862;DHT22;10591;52.532;13.348;2022-10-16T04:05:30;14.90;86.61
20862;DHT22;10591;52.532;13.348;2022-10-16T04:08:01;14.79;86.80
20862;DHT22;10591;52.532;13.348;2022-10-16T04:10:32;14.76;86.93
20862;DHT22;10591;52.532;13.348;2022-10-16T04:13:02;14.77;86.89
20862;DHT22;10591;52.532;13.348;2022-10-16T04:15:32;14.75;86.93
20862;DHT22;10591;52.532;13.348;2022-10-16T04:18:04;14.82;86.72
20862;DHT22;10591;52.532;13.348;2022-10-16T04:20:35;14.78;86.84
20862;DHT22;10591;52.532;13.348;2022-10-16T04:23:05;14.78;86.92
20862;DHT22;10591;52.532;13.348;2022-10-16T04:25:35;14.76;86.84
20862;DHT22;10591;52.532;13.348;2022-10-16T04:28:06;14.76;86.79
20862;DHT22;10591;52.532;13.348;2022-10-16T04:30:38;14.75;86.84
20862;DHT22;10591;52.532;13.348;2022-10-16T04:33:09;14.79;86.75
20862;DHT22;10591;52.532;13.348;2022-10-16T04:35:40;14.74;86.72
20862;DHT22;10591;52.532;13.348;2022-10-16T04:38:10;14.70;86.82
20862;DHT22;10591;52.532;13.348;2022-10-16T04:40:42;14.69;86.90
20862;DHT22;10591;52.532;13.348;2022-10-16T04:43:12;14.68;86.73
20862;DHT22;10591;52.532;13.348;2022-10-16T04:45:43;14.68;86.94
20862;DHT22;10591;52.532;13.348;2022-10-16T04:48:13;14.68;86.68
20862;DHT22;10591;52.532;13.348;2022-10-16T04:50:43;14.59;86.85
20862;DHT22;10591;52.532;13.348;2022-10-16T04:53:14;14.60;86.85
20862;DHT22;10591;52.532;13.348;2022-10-16T04:55:44;14.57;86.99
20862;DHT22;10591;52.532;13.348;2022-10-16T04:58:15;14.60;86.90
20862;DHT22;10591;52.532;13.348;2022-10-16T05:00:45;14.54;86.92
20862;DHT22;10591;52.532;13.348;2022-10-16T05:03:18;14.46;87.10
20862;DHT22;10591;52.532;13.348;2022-10-16T05:05:49;14.54;87.03
20862;DHT22;10591;52.532;13.348;2022-10-16T05:08:20;14.42;87.11
20862;DHT22;10591;52.532;13.348;2022-10-16T05:10:50;14.42;87.16
20862;DHT22;10591;52.532;13.348;2022-10-16T05:13:20;14.44;87.19
20862;DHT22;10591;52.532;13.348;2022-10-16T05:15:52;14.38;87.36
20862;DHT22;10591;52.532;13.348;2022-10-16T05:18:22;14.33;87.47
20862;DHT22;10591;52.532;13.348;2022-10-16T05:20:53;14.36;87.45
20862;DHT22;10591;52.532;13.348;2022-10-16T05:23:23;14.34;87.47
20862;DHT22;10591;52.532;13.348;2022-10-16T05:25:55;14.36;87.40
20862;DHT22;10591;52.532;13.348;2022-10-16T05:28:28;14.45;87.19
20862;DHT22;10591;52.532;13.348;2022-10-16T05:31:03;14.45;87.33
20862;DHT22;10591;52.532;13.348;2022-10-16T05:33:31;14.47;87.15
20862;DHT22;10591;52.532;13.348;2022-10-16T05:36:04;14.42;87.28
20862;DHT22;10591;52.532;13.348;2022-10-16T05:38:36;14.40;87.28
20862;DHT22;10591;52.532;13.348;2022-10-16T05:41:07;14.42;87.28
20862;DHT22;10591;52.532;13.348;2022-10-16T05:43:37;14.49;87.25
20862;DHT22;10591;52.532;13.348;2022-10-16T05:46:07;14.50;87.11
20862;DHT22;10591;52.532;13.348;2022-10-16T05:48:38;14.56;86.99
20862;DHT22;10591;52.532;13.348;2022-10-16T05:51:10;14.49;86.90
20862;DHT22;10591;52.532;13.348;2022-10-16T05:53:41;14.53;86.86
20862;DHT22;10591;52.532;13.348;2022-10-16T05:56:12;14.51;86.97
20862;DHT22;10591;52.532;13.348;2022-10-16T05:58:42;14.42;86.93
20862;DHT22;10591;52.532;13.348;2022-10-16T06:01:16;14.44;86.83
20862;DHT22;10591;52.532;13.348;2022-10-16T06:03:47;14.42;87.04
20862;DHT22;10591;52.532;13.348;2022-10-16T06:06:22;14.42;87.02
20862;DHT22;10591;52.532;13.348;2022-10-16T06:08:56;14.42;87.09
20862;DHT22;10591;52.532;13.348;2022-10-16T06:11:30;14.50;87.07
20862;DHT22;10591;52.532;13.348;2022-10-16T06:14:01;14.54;86.79
20862;DHT22;10591;52.532;13.348;2022-10-16T06:16:35;14.62;86.57
20862;DHT22;10591;52.532;13.348;2022-10-16T06:19:06;14.60;86.55
20862;DHT22;10591;52.532;13.348;2022-10-16T06:21:37;14.64;86.48
20862;DHT22;10591;52.532;13.348;2022-10-16T06:24:09;14.71;86.24
20862;DHT22;10591;52.532;13.348;2022-10-16T06:26:39;14.69;86.25
20862;DHT22;10591;52.532;13.348;2022-10-16T06:29:09;14.74;86.08
20862;DHT22;10591;52.532;13.348;2022-10-16T06:31:40;14.70;86.05
20862;DHT22;10591;52.532;13.348;2022-10-16T06:34:10;14.70;85.98
20862;DHT22;10591;52.532;13.348;2022-10-16T06:36:41;14.72;86.06
20862;DHT22;10591;52.532;13.348;2022-10-16T06:39:12;14.74;86.10
20862;DHT22;10591;52.532;13.348;2022-10-16T06:41:43;14.78;85.71
20862;DHT22;10591;52.532;13.348;2022-10-16T06:44:13;14.69;85.93
20862;DHT22;10591;52.532;13.348;2022-10-16T06:46:43;14.84;85.87
20862;DHT22;10591;52.532;13.348;2022-10-16T06:49:13;14.82;85.86
20862;DHT22;10591;52.532;13.348;2022-10-16T06:51:45;14.87;85.78
20862;DHT22;10591;52.532;13.348;2022-10-16T06:54:16;14.89;85.69
20862;DHT22;10591;52.532;13.348;2022-10-16T06:56:47;14.83;85.68
20862;DHT22;10591;52.532;13.348;2022-10-16T06:59:17;14.83;85.82
20862;DHT22;10591;52.532;13.348;2022-10-16T07:01:48;14.94;85.75
20862;DHT22;10591;52.532;13.348;2022-10-16T07:04:19;15.16;85.20
20862;DHT22;10591;52.532;13.348;2022-10-16T07:06:49;15.26;85.06
20862;DHT22;10591;52.532;13.348;2022-10-16T07:09:20;15.34;84.55
20862;DHT22;10591;52.532;13.348;2022-10-16T07:11:51;15.56;84.01
20862;DHT22;10591;52.532;13.348;2022-10-16T07:14:22;15.67;83.74
20862;DHT22;10591;52.532;13.348;2022-10-16T07:16:52;15.80;83.41
20862;DHT22;10591;52.532;13.348;2022-10-16T07:19:23;15.80;83.11
20862;DHT22;10591;52.532;13.348;2022-10-16T07:21:56;15.80;83.04
20862;DHT22;10591;52.532;13.348;2022-10-16T07:24:26;15.77;83.23
20862;DHT22;10591;52.532;13.348;2022-10-16T07:26:57;15.90;82.94
20862;DHT22;10591;52.532;13.348;2022-10-16T07:29:27;15.98;82.58
20862;DHT22;10591;52.532;13.348;2022-10-16T07:31:58;16.04;82.45
20862;DHT22;10591;52.532;13.348;2022-10-16T07:34:28;15.90;82.89
20862;DHT22;10591;52.532;13.348;2022-10-16T07:36:59;15.97;82.68
20862;DHT22;10591;52.532;13.348;2022-10-16T07:39:29;16.00;82.54
20862;DHT22;10591;52.532;13.348;2022-10-16T07:41:59;16.06;82.65
20862;DHT22;10591;52.532;13.348;2022-10-16T07:44:30;16.08;82.68
20862;DHT22;10591;52.532;13.348;2022-10-16T07:47:00;16.13;82.37
20862;DHT22;10591;52.532;13.348;2022-10-16T07:49:31;16.23;82.09
20862;DHT22;10591;52.532;13.348;2022-10-16T07:52:01;16.14;82.30
20862;DHT22;10591;52.532;13.348;2022-10-16T07:54:32;16.14;82.28
20862;DHT22;10591;52.532;13.348;2022-10-16T07:57:02;16.22;82.00
20862;DHT22;10591;52.532;13.348;2022-10-16T07:59:33;16.33;81.77
20862;DHT22;10591;52.532;13.348;2022-10-16T08:02:03;16.18;82.09
20862;DHT22;10591;52.532;13.348;2022-10-16T08:04:33;16.24;82.22
20862;DHT22;10591;52.532;13.348;2022-10-16T08:07:04;16.17;82.33
20862;DHT22;10591;52.532;13.348;2022-10-16T08:09:34;16.37;81.75
20862;DHT22;10591;52.532;13.348;2022-10-16T08:12:05;16.27;82.01
20862;DHT22;10591;52.532;13.348;2022-10-16T08:14:35;16.34;81.90
20862;DHT22;10591;52.532;13.348;2022-10-16T08:17:06;16.42;81.64
20862;DHT22;10591;52.532;13.348;2022-10-16T08:19:36;16.53;81.36
20862;DHT22;10591;52.532;13.348;2022-10-16T08:22:07;16.58;81.10
20862;DHT22;10591;52.532;13.348;2022-10-16T08:24:37;16.66;81.00
20862;DHT22;10591;52.532;13.348;2022-10-16T08:27:08;16.78;80.84
20862;DHT22;10591;52.532;13.348;2022-10-16T08:29:38;16.68;80.76
20862;DHT22;10591;52.532;13.348;2022-10-16T08:32:08;16.64;80.61
20862;DHT22;10591;52.532;13.348;2022-10-16T08:34:39;16.68;80.74
20862;DHT22;10591;52.532;13.348;2022-10-16T08:37:09;16.58;80.97
20862;DHT22;10591;52.532;13.348;2022-10-16T08:39:41;16.66;81.12
20862;DHT22;10591;52.532;13.348;2022-10-16T08:42:19;16.59;81.23
20862;DHT22;10591;52.532;13.348;2022-10-16T08:50:49;16.74;80.55
20862;DHT22;10591;52.532;13.348;2022-10-16T08:53:43;16.76;80.55
20862;DHT22;10591;52.532;13.348;2022-10-16T08:56:10;16.88;80.10
20862;DHT22;10591;52.532;13.348;2022-10-16T08:58:40;16.87;80.22
20862;DHT22;10591;52.532;13.348;2022-10-16T09:01:13;16.94;79.99
20862;DHT22;10591;52.532;13.348;2022-10-16T09:04:02;17.00;79.65
20862;DHT22;10591;52.532;13.348;2022-10-16T09:06:53;17.30;78.94
20862;DHT22;10591;52.532;13.348;2022-10-16T09:09:32;17.46;78.08
20862;DHT22;10591;52.532;13.348;2022-10-16T09:12:09;17.76;77.02
20862;DHT22;10591;52.532;13.348;2022-10-16T09:14:50;17.75;77.09
20862;DHT22;10591;52.532;13.348;2022-10-16T09:17:36;18.03;76.20
20862;DHT22;10591;52.532;13.348;2022-10-16T09:22:43;17.81;77.13
20862;DHT22;10591;52.532;13.348;2022-10-16T09:25:20;17.90;76.39
20862;DHT22;10591;52.532;13.348;2022-10-16T09:27:52;17.96;76.21
20862;DHT22;10591;52.532;13.348;2022-10-16T09:30:26;18.09;76.03
20862;DHT22;10591;52.532;13.348;2022-10-16T09:32:58;18.34;75.12
20862;DHT22;10591;52.532;13.348;2022-10-16T09:35:36;18.96;73.45
20862;DHT22;10591;52.532;13.348;2022-10-16T09:38:06;19.07;72.38
20862;DHT22;10591;52.532;13.348;2022-10-16T09:40:38;19.29;71.65
20862;DHT22;10591;52.532;13.348;2022-10-16T09:46:01;19.46;71.40
20862;DHT22;10591;52.532;13.348;2022-10-16T09:48:36;19.26;71.76
20862;DHT22;10591;52.532;13.348;2022-10-16T09:51:13;18.92;72.68
20862;DHT22;10591;52.532;13.348;2022-10-16T09:53:44;18.62;73.16
20862;DHT22;10591;52.532;13.348;2022-10-16T09:56:26;18.58;73.59
20862;DHT22;10591;52.532;13.348;2022-10-16T09:58:59;18.89;72.94
20862;DHT22;10591;52.532;13.348;2022-10-16T10:01:49;18.88;72.59
20862;DHT22;10591;52.532;13.348;2022-10-16T10:04:21;19.28;71.70
20862;DHT22;10591;52.532;13.348;2022-10-16T10:06:53;19.20;71.25
20862;DHT22;10591;52.532;13.348;2022-10-16T10:09:36;18.93;72.08
20862;DHT22;10591;52.532;13.348;2022-10-16T10:12:02;19.22;71.47
20862;DHT22;10591;52.532;13.348;2022-10-16T10:14:47;19.06;71.93
20862;DHT22;10591;52.532;13.348;2022-10-16T10:17:20;19.02;71.93
20862;DHT22;10591;52.532;13.348;2022-10-16T10:20:00;18.70;72.64
20862;DHT22;10591;52.532;13.348;2022-10-16T10:22:39;18.53;72.99
20862;DHT22;10591;52.532;13.348;2022-10-16T10:25:15;18.44;73.04
20862;DHT22;10591;52.532;13.348;2022-10-16T10:36:29;18.31;73.12
20862;DHT22;10591;52.532;13.348;2022-10-16T10:39:19;18.51;72.60
20862;DHT22;10591;52.532;13.348;2022-10-16T10:45:16;18.94;71.36
20862;DHT22;10591;52.532;13.348;2022-10-16T10:50:30;19.03;70.89
20862;DHT22;10591;52.532;13.348;2022-10-16T11:01:46;21.29;63.27
20862;DHT22;10591;52.532;13.348;2022-10-16T11:04:44;21.32;63.58
20862;DHT22;10591;52.532;13.348;2022-10-16T11:07:29;21.63;61.89
20862;DHT22;10591;52.532;13.348;2022-10-16T11:10:16;20.95;63.95
20862;DHT22;10591;52.532;13.348;2022-10-16T11:12:51;20.95;64.45
20862;DHT22;10591;52.532;13.348;2022-10-16T11:15:31;20.67;64.55
20862;DHT22;10591;52.532;13.348;2022-10-16T11:20:56;20.32;64.43
20862;DHT22;10591;52.532;13.348;2022-10-16T11:23:31;20.27;65.06
20862;DHT22;10591;52.532;13.348;2022-10-16T11:26:05;19.76;64.72
20862;DHT22;10591;52.532;13.348;2022-10-16T11:28:39;19.76;65.44
20862;DHT22;10591;52.532;13.348;2022-10-16T11:31:13;19.85;64.76
20862;DHT22;10591;52.532;13.348;2022-10-16T11:33:50;20.12;64.05
20862;DHT22;10591;52.532;13.348;2022-10-16T11:36:32;20.25;63.93
20862;DHT22;10591;52.532;13.348;2022-10-16T11:39:11;20.60;63.45
20862;DHT22;10591;52.532;13.348;2022-10-16T11:42:05;20.62;63.29
20862;DHT22;10591;52.532;13.348;2022-10-16T11:50:33;21.39;60.12
20862;DHT22;10591;52.532;13.348;2022-10-16T11:55:53;20.77;61.69
20862;DHT22;10591;52.532;13.348;2022-10-16T11:58:33;20.40;62.67
20862;DHT22;10591;52.532;13.348;2022-10-16T12:06:37;19.77;62.70
20862;DHT22;10591;52.532;13.348;2022-10-16T12:09:11;19.36;63.31
20862;DHT22;10591;52.532;13.348;2022-10-16T12:11:40;19.46;63.32
20862;DHT22;10591;52.532;13.348;2022-10-16T12:16:53;19.50;61.92
20862;DHT22;10591;52.532;13.348;2022-10-16T12:19:26;19.55;61.79
20862;DHT22;10591;52.532;13.348;2022-10-16T12:22:00;19.54;61.67
20862;DHT22;10591;52.532;13.348;2022-10-16T12:24:35;19.33;62.34
20862;DHT22;10591;52.532;13.348;2022-10-16T12:29:58;19.44;62.04
20862;DHT22;10591;52.532;13.348;2022-10-16T12:32:35;19.41;61.73
20862;DHT22;10591;52.532;13.348;2022-10-16T12:35:26;19.46;61.21
20862;DHT22;10591;52.532;13.348;2022-10-16T12:37:53;19.38;61.00
20862;DHT22;10591;52.532;13.348;2022-10-16T12:40:27;19.41;61.23
20862;DHT22;10591;52.532;13.348;2022-10-16T12:42:58;19.36;61.32
20862;DHT22;10591;52.532;13.348;2022-10-16T12:45:31;19.44;61.13
20862;DHT22;10591;52.532;13.348;2022-10-16T12:48:04;19.40;60.94
20862;DHT22;10591;52.532;13.348;2022-10-16T12:50:37;19.46;61.60
20862;DHT22;10591;52.532;13.348;2022-10-16T12:53:21;19.56;60.90
20862;DHT22;10591;52.532;13.348;2022-10-16T13:01:32;19.76;59.39
20862;DHT22;10591;52.532;13.348;2022-10-16T13:06:51;19.68;60.48
20862;DHT22;10591;52.532;13.348;2022-10-16T13:12:06;19.66;59.91
20862;DHT22;10591;52.532;13.348;2022-10-16T13:14:57;19.78;61.41
20862;DHT22;10591;52.532;13.348;2022-10-16T13:17:30;19.72;59.68
20862;DHT22;10591;52.532;13.348;2022-10-16T13:28:17;19.88;60.93
20862;DHT22;10591;52.532;13.348;2022-10-16T13:30:53;20.19;58.01
20862;DHT22;10591;52.532;13.348;2022-10-16T13:35:58;20.12;58.81
20862;DHT22;10591;52.532;13.348;2022-10-16T13:38:36;20.23;58.23
20862;DHT22;10591;52.532;13.348;2022-10-16T13:41:04;20.47;58.42
20862;DHT22;10591;52.532;13.348;2022-10-16T13:43:38;20.01;59.67
20862;DHT22;10591;52.532;13.348;2022-10-16T13:46:16;19.94;59.35
20862;DHT22;10591;52.532;13.348;2022-10-16T13:49:02;19.68;59.82
20862;DHT22;10591;52.532;13.348;2022-10-16T13:51:32;19.62;59.67
20862;DHT22;10591;52.532;13.348;2022-10-16T13:54:03;19.76;59.12
20862;DHT22;10591;52.532;13.348;2022-10-16T13:56:34;19.70;58.23
20862;DHT22;10591;52.532;13.348;2022-10-16T13:59:07;19.80;57.68
20862;DHT22;10591;52.532;13.348;2022-10-16T14:01:42;19.61;57.89
20862;DHT22;10591;52.532;13.348;2022-10-16T14:04:14;19.59;58.16
20862;DHT22;10591;52.532;13.348;2022-10-16T14:06:46;19.80;57.31
20862;DHT22;10591;52.532;13.348;2022-10-16T14:09:33;19.70;57.72
20862;DHT22;10591;52.532;13.348;2022-10-16T14:12:02;19.64;57.92
20862;DHT22;10591;52.532;13.348;2022-10-16T14:14:42;19.74;58.12
20862;DHT22;10591;52.532;13.348;2022-10-16T14:17:22;19.76;58.12
20862;DHT22;10591;52.532;13.348;2022-10-16T14:19:55;19.61;58.34
20862;DHT22;10591;52.532;13.348;2022-10-16T14:22:33;19.63;58.43
20862;DHT22;10591;52.532;13.348;2022-10-16T14:28:04;19.47;59.16
20862;DHT22;10591;52.532;13.348;2022-10-16T14:30:35;19.47;59.34
20862;DHT22;10591;52.532;13.348;2022-10-16T14:33:32;19.48;59.58
20862;DHT22;10591;52.532;13.348;2022-10-16T14:35:40;19.45;59.81
20862;DHT22;10591;52.532;13.348;2022-10-16T14:38:18;19.38;60.04
20862;DHT22;10591;52.532;13.348;2022-10-16T14:40:50;19.40;60.31
20862;DHT22;10591;52.532;13.348;2022-10-16T14:43:22;19.47;60.06
20862;DHT22;10591;52.532;13.348;2022-10-16T14:45:56;19.46;59.94
20862;DHT22;10591;52.532;13.348;2022-10-16T14:48:27;19.41;59.90
20862;DHT22;10591;52.532;13.348;2022-10-16T14:50:57;19.35;60.44
20862;DHT22;10591;52.532;13.348;2022-10-16T14:53:28;19.21;60.61
20862;DHT22;10591;52.532;13.348;2022-10-16T14:55:58;19.20;60.61
20862;DHT22;10591;52.532;13.348;2022-10-16T14:58:30;19.18;60.34
20862;DHT22;10591;52.532;13.348;2022-10-16T15:01:01;19.15;60.33
20862;DHT22;10591;52.532;13.348;2022-10-16T15:03:31;19.10;60.77
20862;DHT22;10591;52.532;13.348;2022-10-16T15:06:02;19.14;60.69
20862;DHT22;10591;52.532;13.348;2022-10-16T15:08:32;19.02;61.20
20862;DHT22;10591;52.532;13.348;2022-10-16T15:11:03;18.91;60.18
20862;DHT22;10591;52.532;13.348;2022-10-16T15:13:33;19.01;59.18
20862;DHT22;10591;52.532;13.348;2022-10-16T15:16:04;18.91;58.60
20862;DHT22;10591;52.532;13.348;2022-10-16T15:18:34;18.86;58.98
20862;DHT22;10591;52.532;13.348;2022-10-16T15:21:05;18.81;59.21
20862;DHT22;10591;52.532;13.348;2022-10-16T15:23:37;18.76;59.35
20862;DHT22;10591;52.532;13.348;2022-10-16T15:26:11;18.65;59.84
20862;DHT22;10591;52.532;13.348;2022-10-16T15:28:41;18.59;59.74
20862;DHT22;10591;52.532;13.348;2022-10-16T15:31:11;18.56;60.00
20862;DHT22;10591;52.532;13.348;2022-10-16T15:33:42;18.49;60.44
20862;DHT22;10591;52.532;13.348;2022-10-16T15:36:12;18.36;60.54
20862;DHT22;10591;52.532;13.348;2022-10-16T15:38:43;18.45;60.13
20862;DHT22;10591;52.532;13.348;2022-10-16T15:41:14;18.36;60.68
20862;DHT22;10591;52.532;13.348;2022-10-16T15:43:45;18.28;60.61
20862;DHT22;10591;52.532;13.348;2022-10-16T15:46:22;18.25;60.79
20862;DHT22;10591;52.532;13.348;2022-10-16T15:48:55;18.19;61.00
20862;DHT22;10591;52.532;13.348;2022-10-16T15:51:27;18.22;60.86
20862;DHT22;10591;52.532;13.348;2022-10-16T15:53:59;18.12;61.27
20862;DHT22;10591;52.532;13.348;2022-10-16T15:56:31;18.12;61.35
20862;DHT22;10591;52.532;13.348;2022-10-16T15:59:02;17.99;62.00
20862;DHT22;10591;52.532;13.348;2022-10-16T16:01:34;17.90;62.14
20862;DHT22;10591;52.532;13.348;2022-10-16T16:04:05;17.76;62.72
20862;DHT22;10591;52.532;13.348;2022-10-16T16:06:38;17.69;62.77
20862;DHT22;10591;52.532;13.348;2022-10-16T16:09:11;17.58;63.21
20862;DHT22;10591;52.532;13.348;2022-10-16T16:11:42;17.48;64.15
20862;DHT22;10591;52.532;13.348;2022-10-16T16:14:13;17.38;64.31
20862;DHT22;10591;52.532;13.348;2022-10-16T16:16:44;17.27;65.63
20862;DHT22;10591;52.532;13.348;2022-10-16T16:19:14;17.17;65.70
20862;DHT22;10591;52.532;13.348;2022-10-16T16:21:46;17.14;65.15
20862;DHT22;10591;52.532;13.348;2022-10-16T16:24:17;17.18;64.33
20862;DHT22;10591;52.532;13.348;2022-10-16T16:26:47;17.09;64.89
20862;DHT22;10591;52.532;13.348;2022-10-16T16:29:18;17.06;65.11
20862;DHT22;10591;52.532;13.348;2022-10-16T16:31:48;17.02;65.67
20862;DHT22;10591;52.532;13.348;2022-10-16T16:34:18;16.94;66.08
20862;DHT22;10591;52.532;13.348;2022-10-16T16:36:50;16.92;65.66
20862;DHT22;10591;52.532;13.348;2022-10-16T16:39:20;16.88;65.02
20862;DHT22;10591;52.532;13.348;2022-10-16T16:41:51;16.74;67.13
20862;DHT22;10591;52.532;13.348;2022-10-16T16:44:21;16.72;66.87
20862;DHT22;10591;52.532;13.348;2022-10-16T16:46:52;16.69;65.90
20862;DHT22;10591;52.532;13.348;2022-10-16T16:49:23;16.58;67.57
20862;DHT22;10591;52.532;13.348;2022-10-16T16:51:54;16.52;68.09
20862;DHT22;10591;52.532;13.348;2022-10-16T16:54:25;16.48;68.22
20862;DHT22;10591;52.532;13.348;2022-10-16T16:56:56;16.42;68.15
20862;DHT22;10591;52.532;13.348;2022-10-16T16:59:26;16.50;66.32
20862;DHT22;10591;52.532;13.348;2022-10-16T17:01:57;16.45;68.33
20862;DHT22;10591;52.532;13.348;2022-10-16T17:04:27;16.43;67.68
20862;DHT22;10591;52.532;13.348;2022-10-16T17:06:58;16.36;67.62
20862;DHT22;10591;52.532;13.348;2022-10-16T17:09:28;16.31;69.50
20862;DHT22;10591;52.532;13.348;2022-10-16T17:11:59;16.22;70.77
20862;DHT22;10591;52.532;13.348;2022-10-16T17:14:29;16.21;70.74
20862;DHT22;10591;52.532;13.348;2022-10-16T17:17:00;16.11;71.16
20862;DHT22;10591;52.532;13.348;2022-10-16T17:19:30;16.04;71.82
20862;DHT22;10591;52.532;13.348;2022-10-16T17:22:01;15.94;71.40